createdAt,value
2019-03-26T00:01:17.184Z,7.10
2019-03-26T00:03:47.183Z,6.03
2019-03-26T00:06:16.833Z,6.70
2019-03-26T00:08:46.629Z,7.00
2019-03-26T00:11:16.375Z,6.83
2019-03-26T00:13:46.081Z,5.90
2019-03-26T00:16:15.792Z,6.47
2019-03-26T00:18:45.482Z,6.03
2019-03-26T00:21:15.184Z,5.77
2019-03-26T00:23:45.068Z,6.23
2019-03-26T00:26:14.909Z,6.13
2019-03-26T00:28:44.592Z,5.17
2019-03-26T00:31:14.362Z,6.33
2019-03-26T00:33:44.042Z,5.60
2019-03-26T00:36:13.801Z,6.00
2019-03-26T00:38:43.529Z,6.50
2019-03-26T00:41:13.483Z,5.90
2019-03-26T00:43:43.172Z,5.83
2019-03-26T00:46:12.984Z,5.30
2019-03-26T00:48:42.746Z,5.90
2019-03-26T00:51:12.476Z,5.73
2019-03-26T00:53:42.212Z,5.17
2019-03-26T00:56:11.961Z,5.03
2019-03-26T00:58:41.745Z,4.97
2019-03-26T01:01:11.478Z,5.27
2019-03-26T01:03:41.216Z,5.93
2019-03-26T01:06:10.914Z,5.17
2019-03-26T01:08:40.600Z,5.60
2019-03-26T01:11:10.399Z,4.70
2019-03-26T01:13:40.173Z,5.90
2019-03-26T01:16:09.929Z,5.30
2019-03-26T01:18:39.612Z,5.07
2019-03-26T01:21:09.350Z,5.60
2019-03-26T01:23:39.142Z,5.70
2019-03-26T01:26:08.912Z,5.30
2019-03-26T01:28:38.654Z,5.20
2019-03-26T01:31:08.337Z,5.63
2019-03-26T01:33:38.091Z,5.43
2019-03-26T01:36:07.869Z,5.83
2019-03-26T01:38:37.587Z,5.70
2019-03-26T01:41:07.305Z,6.20
2019-03-26T01:43:37.038Z,5.70
2019-03-26T01:46:06.764Z,6.10
2019-03-26T01:48:36.556Z,5.40
2019-03-26T01:51:06.249Z,5.50
2019-03-26T01:53:35.956Z,5.53
2019-03-26T01:56:05.906Z,5.70
2019-03-26T01:58:35.665Z,6.13
2019-03-26T02:01:05.562Z,6.17
2019-03-26T02:03:35.288Z,5.53
2019-03-26T02:06:04.977Z,5.90
2019-03-26T02:08:34.773Z,5.57
2019-03-26T02:11:04.470Z,5.43
2019-03-26T02:13:34.157Z,6.43
2019-03-26T02:16:03.818Z,6.30
2019-03-26T02:18:33.528Z,6.57
2019-03-26T02:21:04.380Z,6.33
2019-03-26T02:23:34.176Z,5.87
2019-03-26T02:26:05.098Z,5.80
2019-03-26T02:28:34.812Z,6.50
2019-03-26T02:31:04.556Z,6.77
2019-03-26T02:33:34.381Z,6.93
2019-03-26T02:36:04.209Z,7.00
2019-03-26T02:38:33.963Z,6.90
2019-03-26T02:41:03.736Z,7.47
2019-03-26T02:43:33.412Z,7.70
2019-03-26T02:46:03.195Z,7.43
2019-03-26T02:48:32.879Z,7.80
2019-03-26T02:51:02.706Z,8.10
2019-03-26T02:53:32.410Z,7.37
2019-03-26T02:56:02.136Z,8.13
2019-03-26T02:58:31.870Z,8.30
2019-03-26T03:01:01.628Z,7.97
2019-03-26T03:03:31.461Z,8.30
2019-03-26T03:06:01.148Z,8.80
2019-03-26T03:08:30.899Z,7.30
2019-03-26T03:11:00.682Z,8.57
2019-03-26T03:13:30.425Z,8.53
2019-03-26T03:16:00.271Z,9.73
2019-03-26T03:18:30.017Z,7.83
2019-03-26T03:20:59.872Z,8.50
2019-03-26T03:23:29.532Z,8.27
2019-03-26T03:25:59.307Z,8.37
2019-03-26T03:28:29.062Z,8.10
2019-03-26T03:30:58.911Z,9.30
2019-03-26T03:33:28.717Z,7.70
2019-03-26T03:35:58.723Z,8.63
2019-03-26T03:38:28.415Z,8.90
2019-03-26T03:40:58.196Z,8.50
2019-03-26T03:43:27.869Z,8.13
2019-03-26T03:45:57.890Z,8.60
2019-03-26T03:48:27.782Z,9.10
2019-03-26T03:50:58.581Z,8.50
2019-03-26T03:53:28.614Z,7.93
2019-03-26T03:56:01.050Z,7.20
2019-03-26T03:58:32.621Z,7.40
2019-03-26T04:01:02.366Z,7.87
2019-03-26T04:03:32.149Z,8.70
2019-03-26T04:06:08.748Z,8.33
2019-03-26T04:08:33.379Z,7.43
2019-03-26T04:11:03.441Z,8.80
2019-03-26T04:13:33.226Z,8.27
2019-03-26T04:16:02.920Z,8.77
2019-03-26T04:18:32.751Z,9.00
2019-03-26T04:21:02.431Z,9.47
2019-03-26T04:23:32.117Z,9.30
2019-03-26T04:26:01.797Z,8.87
2019-03-26T04:28:31.490Z,9.37
2019-03-26T04:31:01.188Z,8.97
2019-03-26T04:33:30.904Z,8.77
2019-03-26T04:36:00.679Z,8.33
2019-03-26T04:38:30.408Z,9.20
2019-03-26T04:41:00.116Z,8.23
2019-03-26T04:43:29.885Z,8.60
2019-03-26T04:45:59.644Z,8.00
2019-03-26T04:48:29.349Z,8.47
2019-03-26T04:50:59.084Z,8.60
2019-03-26T04:53:28.769Z,9.20
2019-03-26T04:55:58.565Z,8.00
2019-03-26T04:58:28.243Z,8.90
2019-03-26T05:00:57.939Z,8.40
2019-03-26T05:03:27.624Z,9.50
2019-03-26T05:05:57.345Z,8.73
2019-03-26T05:08:27.036Z,8.60
2019-03-26T05:10:56.724Z,8.73
2019-03-26T05:13:26.503Z,8.00
2019-03-26T05:15:56.275Z,8.37
2019-03-26T05:18:25.985Z,8.37
2019-03-26T05:20:55.693Z,8.57
2019-03-26T05:23:25.483Z,8.07
2019-03-26T05:25:55.192Z,8.03
2019-03-26T05:28:24.889Z,8.70
2019-03-26T05:30:54.661Z,8.63
2019-03-26T05:33:24.401Z,8.83
2019-03-26T05:35:54.219Z,8.57
2019-03-26T05:38:23.921Z,7.47
2019-03-26T05:40:53.711Z,8.20
2019-03-26T05:43:23.500Z,8.17
2019-03-26T05:45:53.296Z,7.57
2019-03-26T05:48:22.996Z,8.20
2019-03-26T05:50:52.823Z,9.00
2019-03-26T05:53:22.599Z,9.33
2019-03-26T05:55:52.405Z,9.20
2019-03-26T05:58:22.113Z,9.67
2019-03-26T06:00:51.903Z,9.13
2019-03-26T06:03:21.693Z,9.53
2019-03-26T06:05:51.472Z,10.40
2019-03-26T06:08:21.248Z,10.10
2019-03-26T06:10:51.046Z,9.70
2019-03-26T06:13:20.756Z,10.00
2019-03-26T06:15:50.525Z,9.90
2019-03-26T06:18:20.312Z,10.13
2019-03-26T06:20:50.069Z,9.07
2019-03-26T06:23:19.902Z,9.90
2019-03-26T06:25:49.601Z,10.10
2019-03-26T06:28:19.321Z,9.40
2019-03-26T06:30:49.077Z,9.00
2019-03-26T06:33:18.806Z,9.83
2019-03-26T06:35:48.630Z,9.20
2019-03-26T06:38:18.436Z,8.93
2019-03-26T06:40:48.334Z,9.53
2019-03-26T06:43:18.121Z,9.90
2019-03-26T06:45:47.917Z,10.50
2019-03-26T06:48:17.712Z,10.63
2019-03-26T06:50:47.413Z,10.77
2019-03-26T06:53:17.330Z,8.90
2019-03-26T06:55:47.042Z,9.83
2019-03-26T06:58:16.768Z,9.93
2019-03-26T07:00:46.656Z,10.43
2019-03-26T07:03:16.518Z,10.43
2019-03-26T07:05:46.396Z,9.60
2019-03-26T07:08:16.112Z,10.30
2019-03-26T07:10:45.913Z,10.67
2019-03-26T07:13:15.689Z,9.90
2019-03-26T07:15:45.486Z,10.37
2019-03-26T07:18:15.225Z,9.60
2019-03-26T07:20:44.916Z,9.70
2019-03-26T07:23:14.631Z,10.40
2019-03-26T07:25:44.319Z,9.70
2019-03-26T07:28:14.124Z,9.43
2019-03-26T07:30:45.141Z,9.40
2019-03-26T07:33:14.849Z,9.87
2019-03-26T07:35:44.575Z,8.37
2019-03-26T07:38:14.373Z,8.57
2019-03-26T07:40:44.144Z,8.77
2019-03-26T07:43:13.918Z,8.57
2019-03-26T07:45:43.727Z,8.40
2019-03-26T07:48:13.429Z,10.30
2019-03-26T07:50:43.276Z,9.40
2019-03-26T07:53:13.012Z,9.17
2019-03-26T07:55:44.011Z,9.73
2019-03-26T07:58:13.908Z,9.33
2019-03-26T08:00:43.711Z,9.30
2019-03-26T08:03:13.471Z,9.50
2019-03-26T08:05:43.169Z,10.77
2019-03-26T08:08:12.936Z,10.80
2019-03-26T08:10:42.724Z,11.20
2019-03-26T08:13:12.493Z,10.10
2019-03-26T08:15:42.311Z,11.50
2019-03-26T08:18:12.088Z,10.47
2019-03-26T08:20:43.003Z,10.53
2019-03-26T08:23:12.814Z,10.33
2019-03-26T08:25:42.501Z,9.97
2019-03-26T08:28:12.205Z,9.20
2019-03-26T08:30:42.026Z,9.73
2019-03-26T08:33:11.741Z,10.23
2019-03-26T08:35:41.509Z,9.83
2019-03-26T08:38:13.032Z,10.83
2019-03-26T08:40:42.821Z,11.13
2019-03-26T08:43:12.678Z,10.97
2019-03-26T08:45:42.370Z,10.90
2019-03-26T08:48:12.064Z,10.67
2019-03-26T08:50:41.807Z,10.90
2019-03-26T08:53:11.593Z,10.37
2019-03-26T08:55:41.459Z,11.10
2019-03-26T08:58:11.274Z,10.37
2019-03-26T09:00:41.258Z,10.17
2019-03-26T09:03:12.342Z,11.50
2019-03-26T09:05:42.049Z,11.30
2019-03-26T09:08:24.492Z,11.03
2019-03-26T09:10:51.700Z,9.53
2019-03-26T09:13:14.877Z,10.90
2019-03-26T09:15:44.624Z,10.00
2019-03-26T09:18:14.344Z,9.40
2019-03-26T09:20:44.042Z,10.10
2019-03-26T09:23:13.771Z,10.03
2019-03-26T09:25:43.493Z,9.00
2019-03-26T09:28:13.259Z,9.70
2019-03-26T09:30:42.961Z,9.43
2019-03-26T09:33:12.760Z,8.57
2019-03-26T09:35:42.564Z,8.80
2019-03-26T09:38:12.439Z,8.80
2019-03-26T09:40:42.112Z,9.40
2019-03-26T09:43:11.915Z,10.07
2019-03-26T09:45:41.717Z,8.90
2019-03-26T09:48:11.497Z,8.30
2019-03-26T09:50:41.224Z,8.63
2019-03-26T09:53:10.995Z,7.97
2019-03-26T09:55:40.715Z,7.70
2019-03-26T09:58:10.408Z,9.50
2019-03-26T10:00:40.198Z,8.77
2019-03-26T10:03:10.084Z,7.87
2019-03-26T10:05:39.948Z,7.87
2019-03-26T10:08:09.660Z,8.90
2019-03-26T10:10:39.362Z,7.90
2019-03-26T10:13:09.049Z,7.83
2019-03-26T10:15:38.754Z,8.23
2019-03-26T10:18:08.488Z,7.10
2019-03-26T10:20:38.389Z,7.47
2019-03-26T10:23:08.211Z,7.17
2019-03-26T10:25:37.995Z,7.50
2019-03-26T10:28:07.701Z,8.80
2019-03-26T10:30:39.121Z,7.97
2019-03-26T10:33:09.069Z,7.47
2019-03-26T10:35:38.863Z,9.50
2019-03-26T10:38:08.789Z,7.90
2019-03-26T10:40:39.359Z,7.97
2019-03-26T10:43:09.320Z,9.00
2019-03-26T10:45:39.023Z,7.33
2019-03-26T10:48:08.732Z,7.60
2019-03-26T10:50:38.482Z,7.70
2019-03-26T10:53:08.217Z,8.00
2019-03-26T10:55:37.957Z,9.67
2019-03-26T10:58:07.743Z,8.30
2019-03-26T11:00:37.420Z,7.73
2019-03-26T11:03:07.137Z,8.30
2019-03-26T11:05:36.899Z,7.30
2019-03-26T11:08:06.714Z,8.17
2019-03-26T11:10:36.486Z,7.50
2019-03-26T11:13:06.190Z,7.57
2019-03-26T11:15:36.225Z,8.10
2019-03-26T11:18:05.967Z,7.50
2019-03-26T11:20:35.768Z,7.10
2019-03-26T11:23:05.754Z,6.37
2019-03-26T11:25:35.432Z,7.00
2019-03-26T11:28:05.291Z,7.20
2019-03-26T11:30:35.091Z,6.63
2019-03-26T11:33:04.891Z,5.97
2019-03-26T11:35:34.642Z,6.17
2019-03-26T11:38:04.442Z,8.33
2019-03-26T11:40:34.153Z,6.40
2019-03-26T11:43:03.839Z,5.90
2019-03-26T11:45:33.528Z,5.57
2019-03-26T11:48:03.277Z,5.70
2019-03-26T11:50:33.134Z,5.87
2019-03-26T11:53:03.010Z,6.00
2019-03-26T11:55:32.917Z,6.40
2019-03-26T11:58:02.750Z,5.90
2019-03-26T12:00:37.193Z,6.17
2019-03-26T12:03:07.012Z,6.40
2019-03-26T12:05:36.780Z,5.30
2019-03-26T12:08:06.556Z,5.07
2019-03-26T12:10:36.519Z,5.97
2019-03-26T12:13:06.259Z,6.40
2019-03-26T12:15:36.066Z,5.10
2019-03-26T12:18:05.917Z,5.30
2019-03-26T12:20:35.801Z,5.70
2019-03-26T12:23:05.775Z,4.97
2019-03-26T12:25:35.580Z,5.20
2019-03-26T12:28:05.281Z,4.60
2019-03-26T12:30:36.609Z,5.03
2019-03-26T12:33:07.933Z,4.97
2019-03-26T12:35:38.195Z,4.90
2019-03-26T12:38:21.416Z,4.70
2019-03-26T12:40:51.742Z,3.80
2019-03-26T12:43:21.471Z,3.80
2019-03-26T12:45:51.380Z,3.70
2019-03-26T12:48:21.137Z,3.90
2019-03-26T12:50:50.887Z,3.83
2019-03-26T12:53:20.579Z,4.70
2019-03-26T12:55:50.425Z,3.90
2019-03-26T12:58:30.993Z,4.40
2019-03-26T13:00:51.600Z,3.27
2019-03-26T13:03:21.456Z,3.50
2019-03-26T13:05:51.137Z,3.10
2019-03-26T13:08:20.973Z,3.43
2019-03-26T13:10:53.938Z,3.60
2019-03-26T13:13:22.197Z,3.67
2019-03-26T13:15:51.995Z,3.53
2019-03-26T13:18:21.712Z,3.53
2019-03-26T13:20:51.494Z,3.60
2019-03-26T13:23:21.200Z,3.17
2019-03-26T13:25:51.051Z,3.53
2019-03-26T13:28:20.766Z,3.50
2019-03-26T13:30:50.514Z,3.67
2019-03-26T13:33:20.211Z,3.60
2019-03-26T13:35:51.727Z,4.20
2019-03-26T13:38:21.420Z,3.80
2019-03-26T13:40:51.113Z,3.00
2019-03-26T13:43:20.832Z,4.37
2019-03-26T13:45:50.511Z,3.10
2019-03-26T13:48:20.254Z,3.27
2019-03-26T13:50:50.094Z,3.40
2019-03-26T13:53:19.892Z,3.73
2019-03-26T13:55:49.595Z,3.73
2019-03-26T13:58:19.388Z,3.13
2019-03-26T14:00:49.189Z,3.00
2019-03-26T14:03:18.998Z,3.50
2019-03-26T14:05:48.839Z,3.20
2019-03-26T14:08:18.676Z,3.53
2019-03-26T14:10:48.374Z,2.70
2019-03-26T14:13:18.174Z,2.80
2019-03-26T14:15:47.931Z,2.80
2019-03-26T14:18:17.632Z,2.93
2019-03-26T14:20:47.549Z,2.60
2019-03-26T14:23:17.320Z,2.40
2019-03-26T14:25:47.000Z,2.80
2019-03-26T14:28:16.761Z,2.50
2019-03-26T14:30:46.542Z,2.83
2019-03-26T14:33:16.449Z,2.50
2019-03-26T14:35:46.267Z,2.97
2019-03-26T14:38:15.967Z,3.00
2019-03-26T14:40:54.756Z,3.10
2019-03-26T14:43:17.287Z,3.63
2019-03-26T14:45:47.046Z,3.47
2019-03-26T14:48:16.787Z,3.43
2019-03-26T14:50:46.524Z,3.63
2019-03-26T14:53:16.201Z,4.10
2019-03-26T14:55:46.049Z,4.27
2019-03-26T14:58:15.811Z,3.43
2019-03-26T15:00:45.524Z,3.80
2019-03-26T15:03:15.283Z,3.97
2019-03-26T15:05:45.096Z,4.60
2019-03-26T15:08:14.779Z,4.60
2019-03-26T15:10:44.568Z,4.07
2019-03-26T15:13:14.356Z,4.00
2019-03-26T15:15:44.586Z,4.50
2019-03-26T15:18:14.262Z,4.00
2019-03-26T15:20:43.983Z,4.57
2019-03-26T15:23:13.664Z,5.00
2019-03-26T15:25:43.425Z,4.50
2019-03-26T15:28:13.162Z,4.93
2019-03-26T15:30:42.937Z,5.20
2019-03-26T15:33:12.716Z,4.70
2019-03-26T15:35:42.411Z,4.70
2019-03-26T15:38:12.187Z,5.20
2019-03-26T15:40:43.356Z,4.67
2019-03-26T15:43:13.163Z,4.17
2019-03-26T15:45:42.839Z,4.40
2019-03-26T15:48:12.615Z,3.80
2019-03-26T15:50:46.342Z,4.43
2019-03-26T15:53:16.536Z,3.87
2019-03-26T15:55:46.969Z,3.33
2019-03-26T15:58:16.764Z,5.27
2019-03-26T16:00:46.510Z,6.00
2019-03-26T16:03:16.320Z,6.00
2019-03-26T16:05:46.116Z,5.10
2019-03-26T16:08:15.877Z,5.63
2019-03-26T16:10:45.654Z,6.50
2019-03-26T16:13:15.369Z,4.80
2019-03-26T16:15:45.348Z,4.30
2019-03-26T16:18:15.204Z,5.53
2019-03-26T16:20:44.932Z,5.77
2019-03-26T16:23:14.698Z,7.50
2019-03-26T16:25:44.512Z,7.83
2019-03-26T16:28:14.270Z,7.37
2019-03-26T16:30:43.929Z,9.83
2019-03-26T16:33:13.720Z,9.30
2019-03-26T16:35:43.442Z,9.40
2019-03-26T16:38:13.153Z,8.57
2019-03-26T16:40:42.877Z,8.83
2019-03-26T16:43:12.703Z,8.93
2019-03-26T16:45:42.487Z,9.43
2019-03-26T16:48:12.426Z,9.33
2019-03-26T16:50:42.410Z,10.33
2019-03-26T16:53:12.131Z,10.03
2019-03-26T16:55:41.944Z,11.27
2019-03-26T16:58:11.725Z,9.80
2019-03-26T17:00:41.468Z,9.30
2019-03-26T17:03:11.304Z,10.97
2019-03-26T17:05:41.060Z,9.50
2019-03-26T17:08:10.854Z,9.30
2019-03-26T17:10:40.654Z,9.57
2019-03-26T17:13:10.450Z,10.10
2019-03-26T17:15:40.172Z,9.93
2019-03-26T17:18:09.964Z,8.97
2019-03-26T17:20:39.765Z,9.83
2019-03-26T17:23:09.496Z,8.93
2019-03-26T17:25:39.422Z,9.50
2019-03-26T17:28:09.184Z,9.80
2019-03-26T17:30:38.989Z,9.67
2019-03-26T17:33:08.794Z,9.10
2019-03-26T17:35:38.634Z,9.13
2019-03-26T17:38:08.415Z,9.23
2019-03-26T17:40:38.129Z,10.00
2019-03-26T17:43:07.922Z,9.60
2019-03-26T17:45:37.760Z,10.90
2019-03-26T17:48:07.550Z,8.40
2019-03-26T17:50:37.290Z,8.50
2019-03-26T17:53:07.171Z,8.23
2019-03-26T17:55:36.849Z,8.20
2019-03-26T17:58:06.657Z,8.10
2019-03-26T18:00:45.467Z,7.37
2019-03-26T18:03:26.320Z,9.33
2019-03-26T18:05:47.089Z,10.20
2019-03-26T18:08:16.957Z,9.87
2019-03-26T18:10:46.714Z,7.97
2019-03-26T18:13:16.431Z,7.30
2019-03-26T18:15:46.248Z,6.53
2019-03-26T18:18:16.076Z,7.07
2019-03-26T18:20:45.892Z,6.93
2019-03-26T18:23:15.697Z,6.03
2019-03-26T18:25:45.433Z,6.07
2019-03-26T18:28:15.282Z,7.40
2019-03-26T18:30:45.077Z,6.93
2019-03-26T18:33:14.773Z,6.87
2019-03-26T18:35:44.516Z,7.10
2019-03-26T18:38:15.006Z,7.70
2019-03-26T18:40:44.802Z,6.60
2019-03-26T18:43:14.617Z,6.33
2019-03-26T18:45:45.721Z,6.70
2019-03-26T18:48:15.850Z,6.60
2019-03-26T18:50:45.609Z,6.80
2019-03-26T18:53:15.447Z,7.13
2019-03-26T18:55:45.236Z,7.00
2019-03-26T18:58:15.072Z,7.13
2019-03-26T19:00:44.900Z,7.80
2019-03-26T19:03:14.805Z,7.57
2019-03-26T19:05:44.670Z,5.90
2019-03-26T19:08:14.493Z,6.90
2019-03-26T19:10:44.330Z,6.63
2019-03-26T19:13:19.769Z,7.70
2019-03-26T19:15:45.577Z,7.40
2019-03-26T19:18:15.418Z,7.00
2019-03-26T19:20:45.320Z,7.20
2019-03-26T19:23:15.058Z,7.40
2019-03-26T19:25:44.882Z,7.07
2019-03-26T19:28:14.716Z,7.33
2019-03-26T19:30:44.593Z,8.00
2019-03-26T19:33:14.400Z,6.83
2019-03-26T19:35:44.369Z,6.90
2019-03-26T19:38:14.184Z,7.90
2019-03-26T19:40:43.868Z,7.90
2019-03-26T19:43:13.674Z,7.17
2019-03-26T19:45:43.394Z,7.97
2019-03-26T19:48:13.089Z,7.80
2019-03-26T19:50:42.901Z,7.00
2019-03-26T19:53:12.669Z,7.73
2019-03-26T19:55:42.417Z,6.90
2019-03-26T19:58:12.232Z,7.97
2019-03-26T20:00:42.039Z,7.67
2019-03-26T20:03:11.853Z,8.10
2019-03-26T20:05:41.541Z,7.27
2019-03-26T20:08:11.484Z,7.90
2019-03-26T20:10:41.230Z,8.17
2019-03-26T20:13:23.805Z,8.70
2019-03-26T20:15:42.568Z,9.10
2019-03-26T20:18:12.313Z,8.83
2019-03-26T20:20:42.123Z,8.53
2019-03-26T20:23:11.919Z,9.83
2019-03-26T20:25:41.796Z,8.40
2019-03-26T20:28:11.552Z,8.90
2019-03-26T20:30:41.410Z,9.20
2019-03-26T20:33:11.221Z,9.20
2019-03-26T20:35:41.012Z,8.50
2019-03-26T20:38:10.866Z,8.40
2019-03-26T20:40:40.778Z,8.40
2019-03-26T20:43:13.004Z,7.67
2019-03-26T20:45:44.396Z,8.00
2019-03-26T20:48:14.316Z,8.40
2019-03-26T20:50:44.202Z,7.77
2019-03-26T20:53:14.054Z,8.63
2019-03-26T20:55:53.613Z,8.00
2019-03-26T20:58:15.340Z,8.10
2019-03-26T21:00:45.133Z,8.13
2019-03-26T21:03:14.907Z,8.97
2019-03-26T21:05:44.725Z,7.57
2019-03-26T21:08:14.608Z,7.13
2019-03-26T21:10:44.222Z,7.40
2019-03-26T21:13:13.940Z,7.80
2019-03-26T21:15:56.338Z,7.47
2019-03-26T21:18:15.267Z,7.27
2019-03-26T21:20:44.982Z,7.10
2019-03-26T21:23:14.706Z,6.93
2019-03-26T21:25:44.503Z,8.70
2019-03-26T21:28:15.410Z,8.10
2019-03-26T21:30:45.073Z,8.30
2019-03-26T21:33:14.769Z,8.03
2019-03-26T21:35:44.669Z,7.20
2019-03-26T21:38:14.342Z,8.00
2019-03-26T21:40:47.134Z,7.70
2019-03-26T21:43:15.636Z,8.20
2019-03-26T21:45:45.482Z,9.03
2019-03-26T21:48:15.433Z,8.87
2019-03-26T21:50:46.125Z,9.50
2019-03-26T21:53:15.957Z,8.97
2019-03-26T21:55:45.895Z,9.30
2019-03-26T21:58:15.701Z,9.67
2019-03-26T22:00:45.812Z,9.63
2019-03-26T22:03:16.960Z,9.00
2019-03-26T22:05:48.073Z,7.97
2019-03-26T22:08:18.134Z,7.67
2019-03-26T22:10:47.828Z,8.17
2019-03-26T22:13:17.532Z,8.73
2019-03-26T22:15:48.746Z,7.80
2019-03-26T22:18:18.603Z,8.27
2019-03-26T22:20:48.510Z,8.37
2019-03-26T22:23:18.314Z,8.87
2019-03-26T22:25:48.254Z,7.70
2019-03-26T22:28:18.000Z,7.83
2019-03-26T22:30:47.893Z,8.40
2019-03-26T22:33:17.839Z,8.40
2019-03-26T22:35:47.692Z,8.20
2019-03-26T22:38:18.624Z,9.27
2019-03-26T22:40:48.371Z,9.37
2019-03-26T22:43:18.420Z,7.33
2019-03-26T22:45:48.447Z,8.53
2019-03-26T22:48:18.250Z,8.67
2019-03-26T22:50:48.088Z,9.60
2019-03-26T22:53:20.826Z,8.57
2019-03-26T22:55:50.545Z,8.07
2019-03-26T22:58:20.323Z,8.40
2019-03-26T23:00:50.189Z,8.33
2019-03-26T23:03:20.009Z,8.07
2019-03-26T23:05:49.769Z,7.80
2019-03-26T23:08:19.515Z,8.80
2019-03-26T23:10:49.306Z,8.67
2019-03-26T23:13:19.047Z,8.73
2019-03-26T23:15:48.900Z,8.37
2019-03-26T23:18:18.631Z,9.97
2019-03-26T23:20:48.843Z,8.10
2019-03-26T23:23:18.536Z,8.83
2019-03-26T23:25:48.235Z,9.17
2019-03-26T23:28:17.951Z,8.63
2019-03-26T23:30:47.616Z,9.23
2019-03-26T23:33:17.549Z,8.50
2019-03-26T23:35:47.222Z,7.97
2019-03-26T23:38:17.015Z,8.00
2019-03-26T23:40:46.689Z,7.87
2019-03-26T23:43:16.461Z,8.57
2019-03-26T23:45:46.167Z,8.67
2019-03-26T23:48:16.090Z,9.57
2019-03-26T23:50:45.957Z,8.93
2019-03-26T23:53:15.749Z,8.93
2019-03-26T23:55:45.513Z,8.33
2019-03-26T23:58:15.251Z,9.40
